createdAt,value
2023-02-17T00:00:39.987Z,9.3
2023-02-17T00:01:39.986Z,9.3
2023-02-17T00:02:40.093Z,9.3
2023-02-17T00:03:40.020Z,9.3
2023-02-17T00:04:40.005Z,9.3
2023-02-17T00:05:40.023Z,9.3
2023-02-17T00:06:39.993Z,9.3
2023-02-17T00:07:39.987Z,9.3
2023-02-17T00:08:39.984Z,9.3
2023-02-17T00:09:39.980Z,9.3
2023-02-17T00:10:40.010Z,9.2
2023-02-17T00:11:39.983Z,9.2
2023-02-17T00:12:39.980Z,9.2
2023-02-17T00:13:39.989Z,9.2
2023-02-17T00:14:39.986Z,9.2
2023-02-17T00:15:40.026Z,9.2
2023-02-17T00:16:39.984Z,9.2
2023-02-17T00:17:39.997Z,9.2
2023-02-17T00:18:40.001Z,9.2
2023-02-17T00:19:40.053Z,9.2
2023-02-17T00:20:40.013Z,9.2
2023-02-17T00:21:39.988Z,9.2
2023-02-17T00:22:39.993Z,9.2
2023-02-17T00:23:39.984Z,9.1
2023-02-17T00:24:39.986Z,9.1
2023-02-17T00:25:39.993Z,9.1
2023-02-17T00:26:39.984Z,9.1
2023-02-17T00:27:39.996Z,9.1
2023-02-17T00:28:39.984Z,9.1
2023-02-17T00:29:39.983Z,9.1
2023-02-17T00:30:39.981Z,9.1
2023-02-17T00:31:40.109Z,9.1
2023-02-17T00:32:39.990Z,9.1
2023-02-17T00:33:39.998Z,9.1
2023-02-17T00:34:40.169Z,9.1
2023-02-17T00:35:39.983Z,9.1
2023-02-17T00:36:40.004Z,9.1
2023-02-17T00:37:39.990Z,9.1
2023-02-17T00:38:39.990Z,9.1
2023-02-17T00:39:39.994Z,9.1
2023-02-17T00:40:40.001Z,9.1
2023-02-17T00:41:40.008Z,9.1
2023-02-17T00:42:39.990Z,9.1
2023-02-17T00:43:39.993Z,9.1
2023-02-17T00:44:40.001Z,9.1
2023-02-17T00:45:39.994Z,9.1
2023-02-17T00:46:40.046Z,9.1
2023-02-17T00:47:40.154Z,9.1
2023-02-17T00:48:40.007Z,9.1
2023-02-17T00:49:39.991Z,9.1
2023-02-17T00:50:39.991Z,9.2
2023-02-17T00:51:39.988Z,9.2
2023-02-17T00:52:40.242Z,9.2
2023-02-17T00:53:40.466Z,9.2
2023-02-17T00:54:39.986Z,9.2
2023-02-17T00:55:40.194Z,9.2
2023-02-17T00:56:40.050Z,9.3
2023-02-17T00:57:40.245Z,9.3
2023-02-17T00:58:40.061Z,9.3
2023-02-17T00:59:40.255Z,9.3
2023-02-17T01:00:40.092Z,9.3
2023-02-17T01:01:40.877Z,9.3
2023-02-17T01:02:39.983Z,9.4
2023-02-17T01:03:40.144Z,9.4
2023-02-17T01:04:40.029Z,9.4
2023-02-17T01:05:40.211Z,9.4
2023-02-17T01:06:40.020Z,9.4
2023-02-17T01:07:40.171Z,9.4
2023-02-17T01:08:40.003Z,9.4
2023-02-17T01:09:40.137Z,9.5
2023-02-17T01:10:39.984Z,9.5
2023-02-17T01:11:39.996Z,9.5
2023-02-17T01:12:39.993Z,9.5
2023-02-17T01:13:39.987Z,9.5
2023-02-17T01:14:40.174Z,9.6
2023-02-17T01:15:39.991Z,9.6
2023-02-17T01:16:40.002Z,9.6
2023-02-17T01:17:39.987Z,9.6
2023-02-17T01:18:39.987Z,9.6
2023-02-17T01:19:40.017Z,9.6
2023-02-17T01:20:39.997Z,9.6
2023-02-17T01:21:39.988Z,9.6
2023-02-17T01:22:40.022Z,9.7
2023-02-17T01:23:40.031Z,9.7
2023-02-17T01:24:39.998Z,9.7
2023-02-17T01:25:39.995Z,9.7
2023-02-17T01:26:39.996Z,9.7
2023-02-17T01:27:40.019Z,9.7
2023-02-17T01:28:39.985Z,9.7
2023-02-17T01:29:39.986Z,9.8
2023-02-17T01:30:40.039Z,9.8
2023-02-17T01:31:40.087Z,9.8
2023-02-17T01:32:39.991Z,9.8
2023-02-17T01:33:40.001Z,9.8
2023-02-17T01:34:40.002Z,9.8
2023-02-17T01:35:40.015Z,9.8
2023-02-17T01:36:39.989Z,9.8
2023-02-17T01:37:40.230Z,9.8
2023-02-17T01:38:39.984Z,9.8
2023-02-17T01:39:39.987Z,9.8
2023-02-17T01:40:40.004Z,9.8
2023-02-17T01:41:40.133Z,9.8
2023-02-17T01:42:40.221Z,9.8
2023-02-17T01:43:39.989Z,9.8
2023-02-17T01:44:40.006Z,9.8
2023-02-17T01:45:39.992Z,9.8
2023-02-17T01:46:40.025Z,9.8
2023-02-17T01:47:39.988Z,9.8
2023-02-17T01:48:39.983Z,9.8
2023-02-17T01:49:39.993Z,9.8
2023-02-17T01:50:39.996Z,9.8
2023-02-17T01:51:40.006Z,9.8
2023-02-17T01:52:40.034Z,9.8
2023-02-17T01:53:40.105Z,9.8
2023-02-17T01:54:39.986Z,9.8
2023-02-17T01:55:39.990Z,9.8
2023-02-17T01:56:40.019Z,9.8
2023-02-17T01:57:40.281Z,9.8
2023-02-17T01:58:39.984Z,9.8
2023-02-17T01:59:39.979Z,9.8
2023-02-17T02:00:39.985Z,9.8
2023-02-17T02:01:40.064Z,9.8
2023-02-17T02:02:40.100Z,9.8
2023-02-17T02:03:39.998Z,9.8
2023-02-17T02:04:39.987Z,9.8
2023-02-17T02:05:39.990Z,9.8
2023-02-17T02:06:39.990Z,9.8
2023-02-17T02:07:40.004Z,9.8
2023-02-17T02:08:39.982Z,9.8
2023-02-17T02:09:39.984Z,9.8
2023-02-17T02:10:39.983Z,9.8
2023-02-17T02:11:39.984Z,9.8
2023-02-17T02:12:40.002Z,9.8
2023-02-17T02:13:39.983Z,9.8
2023-02-17T02:14:39.981Z,9.8
2023-02-17T02:15:39.988Z,9.8
2023-02-17T02:16:40.064Z,9.8
2023-02-17T02:17:40.007Z,9.8
2023-02-17T02:18:39.992Z,9.8
2023-02-17T02:19:39.991Z,9.8
2023-02-17T02:20:39.987Z,9.8
2023-02-17T02:21:40.327Z,9.8
2023-02-17T02:22:40.019Z,9.8
2023-02-17T02:23:40.156Z,9.8
2023-02-17T02:24:40.294Z,9.8
2023-02-17T02:25:39.988Z,9.8
2023-02-17T02:26:39.992Z,9.8
2023-02-17T02:27:40.009Z,9.8
2023-02-17T02:28:39.989Z,9.8
2023-02-17T02:29:39.991Z,9.8
2023-02-17T02:30:40.050Z,9.8
2023-02-17T02:31:39.995Z,9.8
2023-02-17T02:32:40.021Z,9.8
2023-02-17T02:33:39.998Z,9.8
2023-02-17T02:34:39.989Z,9.8
2023-02-17T02:35:39.991Z,9.8
2023-02-17T02:36:39.997Z,9.8
2023-02-17T02:37:40.000Z,9.8
2023-02-17T02:38:40.009Z,9.8
2023-02-17T02:39:39.984Z,9.8
2023-02-17T02:40:39.995Z,9.8
2023-02-17T02:41:40.007Z,9.7
2023-02-17T02:42:39.991Z,9.7
2023-02-17T02:43:40.007Z,9.7
2023-02-17T02:44:39.996Z,9.7
2023-02-17T02:45:40.040Z,9.7
2023-02-17T02:46:40.175Z,9.7
2023-02-17T02:47:39.985Z,9.7
2023-02-17T02:48:40.004Z,9.7
2023-02-17T02:49:39.989Z,9.7
2023-02-17T02:50:39.997Z,9.7
2023-02-17T02:51:39.987Z,9.6
2023-02-17T02:52:39.988Z,9.7
2023-02-17T02:53:40.029Z,9.7
2023-02-17T02:54:39.985Z,9.6
2023-02-17T02:55:40.004Z,9.6
2023-02-17T02:56:39.986Z,9.6
2023-02-17T02:57:39.995Z,9.6
2023-02-17T02:58:40.004Z,9.6
2023-02-17T02:59:40.101Z,9.6
2023-02-17T03:00:39.997Z,9.6
2023-02-17T03:01:39.988Z,9.6
2023-02-17T03:02:39.987Z,9.6
2023-02-17T03:03:40.023Z,9.6
2023-02-17T03:04:39.998Z,9.6
2023-02-17T03:05:39.989Z,9.6
2023-02-17T03:06:39.988Z,9.6
2023-02-17T03:07:40.003Z,9.6
2023-02-17T03:08:40.001Z,9.6
2023-02-17T03:09:39.992Z,9.6
2023-02-17T03:10:39.992Z,9.6
2023-02-17T03:11:40.256Z,9.6
2023-02-17T03:12:40.125Z,9.6
2023-02-17T03:13:40.245Z,9.6
2023-02-17T03:14:39.992Z,9.6
2023-02-17T03:15:40.003Z,9.6
2023-02-17T03:16:40.014Z,9.6
2023-02-17T03:17:39.989Z,9.6
2023-02-17T03:18:39.990Z,9.6
2023-02-17T03:19:39.992Z,9.6
2023-02-17T03:20:39.991Z,9.6
2023-02-17T03:21:39.991Z,9.6
2023-02-17T03:22:39.992Z,9.6
2023-02-17T03:23:39.989Z,9.6
2023-02-17T03:24:39.996Z,9.6
2023-02-17T03:25:39.997Z,9.6
2023-02-17T03:26:40.096Z,9.6
2023-02-17T03:27:39.991Z,9.6
2023-02-17T03:28:40.003Z,9.6
2023-02-17T03:29:39.997Z,9.6
2023-02-17T03:30:39.991Z,9.6
2023-02-17T03:31:40.052Z,9.6
2023-02-17T03:32:40.000Z,9.6
2023-02-17T03:33:39.994Z,9.6
2023-02-17T03:34:39.985Z,9.6
2023-02-17T03:35:40.002Z,9.6
2023-02-17T03:36:39.991Z,9.6
2023-02-17T03:37:40.010Z,9.6
2023-02-17T03:38:39.994Z,9.6
2023-02-17T03:39:39.995Z,9.6
2023-02-17T03:40:40.020Z,9.7
2023-02-17T03:41:40.095Z,9.7
2023-02-17T03:42:40.013Z,9.7
2023-02-17T03:43:40.002Z,9.7
2023-02-17T03:44:39.992Z,9.7
2023-02-17T03:45:40.078Z,9.7
2023-02-17T03:46:39.990Z,9.7
2023-02-17T03:47:40.004Z,9.7
2023-02-17T03:48:39.985Z,9.7
2023-02-17T03:49:40.002Z,9.7
2023-02-17T03:50:39.997Z,9.7
2023-02-17T03:51:39.992Z,9.8
2023-02-17T03:52:40.000Z,9.8
2023-02-17T03:53:40.006Z,9.8
2023-02-17T03:54:40.081Z,9.8
2023-02-17T03:55:40.012Z,9.8
2023-02-17T03:56:40.108Z,9.8
2023-02-17T03:57:39.984Z,9.8
2023-02-17T03:58:39.982Z,9.8
2023-02-17T03:59:39.981Z,9.8
2023-02-17T04:00:39.984Z,9.8
2023-02-17T04:01:40.085Z,9.8
2023-02-17T04:02:41.592Z,9.8
2023-02-17T04:03:39.991Z,9.8
2023-02-17T04:04:39.984Z,9.8
2023-02-17T04:05:39.985Z,9.8
2023-02-17T04:06:39.986Z,9.8
2023-02-17T04:07:40.000Z,9.8
2023-02-17T04:08:40.003Z,9.8
2023-02-17T04:09:39.994Z,9.8
2023-02-17T04:10:40.069Z,9.8
2023-02-17T04:11:39.991Z,9.8
2023-02-17T04:12:39.980Z,9.8
2023-02-17T04:13:40.047Z,9.8
2023-02-17T04:14:39.984Z,9.8
2023-02-17T04:15:40.027Z,9.8
2023-02-17T04:16:39.993Z,9.8
2023-02-17T04:17:39.991Z,9.9
2023-02-17T04:18:39.982Z,9.9
2023-02-17T04:19:39.984Z,9.9
2023-02-17T04:20:40.003Z,9.9
2023-02-17T04:21:39.986Z,9.9
2023-02-17T04:22:39.985Z,9.9
2023-02-17T04:23:39.989Z,9.9
2023-02-17T04:24:40.204Z,9.9
2023-02-17T04:25:40.324Z,9.9
2023-02-17T04:26:40.469Z,9.9
2023-02-17T04:27:40.160Z,9.9
2023-02-17T04:28:40.038Z,9.9
2023-02-17T04:29:40.257Z,9.9
2023-02-17T04:30:40.275Z,9.9
2023-02-17T04:31:40.062Z,9.9
2023-02-17T04:32:39.979Z,9.9
2023-02-17T04:33:40.007Z,9.9
2023-02-17T04:34:39.984Z,9.9
2023-02-17T04:35:40.092Z,9.9
2023-02-17T04:36:40.281Z,9.9
2023-02-17T04:37:40.115Z,9.9
2023-02-17T04:38:40.528Z,10
2023-02-17T04:39:40.437Z,9.9
2023-02-17T04:40:40.595Z,9.9
2023-02-17T04:41:39.987Z,10
2023-02-17T04:42:40.234Z,10
2023-02-17T04:43:40.262Z,10
2023-02-17T04:44:40.141Z,10
2023-02-17T04:45:39.988Z,10
2023-02-17T04:46:39.977Z,10
2023-02-17T04:47:39.995Z,10
2023-02-17T04:48:39.999Z,10
2023-02-17T04:49:39.987Z,10
2023-02-17T04:50:39.981Z,10
2023-02-17T04:51:39.980Z,10
2023-02-17T04:52:39.991Z,10
2023-02-17T04:53:40.118Z,10
2023-02-17T04:54:39.983Z,10
2023-02-17T04:55:39.983Z,10
2023-02-17T04:56:39.976Z,10
2023-02-17T04:57:39.994Z,10
2023-02-17T04:58:40.004Z,10
2023-02-17T04:59:39.980Z,10
2023-02-17T05:00:39.978Z,10.1
2023-02-17T05:01:40.030Z,10.1
2023-02-17T05:02:39.982Z,10.1
2023-02-17T05:03:39.992Z,10.1
2023-02-17T05:04:40.075Z,10
2023-02-17T05:05:39.996Z,10.1
2023-02-17T05:06:39.983Z,10.1
2023-02-17T05:07:40.138Z,10.1
2023-02-17T05:08:40.237Z,10.1
2023-02-17T05:09:40.269Z,10.1
2023-02-17T05:10:39.993Z,10.1
2023-02-17T05:11:39.999Z,10.1
2023-02-17T05:12:40.046Z,10.1
2023-02-17T05:13:39.991Z,10.1
2023-02-17T05:14:39.979Z,10.1
2023-02-17T05:15:40.077Z,10.1
2023-02-17T05:16:39.987Z,10.1
2023-02-17T05:17:39.985Z,10.1
2023-02-17T05:18:39.983Z,10.1
2023-02-17T05:19:39.985Z,10.2
2023-02-17T05:20:39.986Z,10.2
2023-02-17T05:21:39.998Z,10.1
2023-02-17T05:22:40.059Z,10.2
2023-02-17T05:23:39.981Z,10.2
2023-02-17T05:24:39.986Z,10.1
2023-02-17T05:25:39.983Z,10.2
2023-02-17T05:26:39.981Z,10.1
2023-02-17T05:27:40.281Z,10.2
2023-02-17T05:28:40.005Z,10.2
2023-02-17T05:29:39.984Z,10.2
2023-02-17T05:30:39.987Z,10.1
2023-02-17T05:31:40.038Z,10.2
2023-02-17T05:32:39.981Z,10.1
2023-02-17T05:33:40.000Z,10.1
2023-02-17T05:34:39.994Z,10.1
2023-02-17T05:35:39.989Z,10.1
2023-02-17T05:36:39.994Z,10.1
2023-02-17T05:37:40.092Z,10.1
2023-02-17T05:38:39.993Z,10.1
2023-02-17T05:39:39.985Z,10.1
2023-02-17T05:40:39.981Z,10.1
2023-02-17T05:41:39.996Z,10.1
2023-02-17T05:42:40.004Z,10.1
2023-02-17T05:43:39.982Z,10.1
2023-02-17T05:44:39.986Z,10.1
2023-02-17T05:45:39.982Z,10.2
2023-02-17T05:46:40.242Z,10.1
2023-02-17T05:47:40.030Z,10.1
2023-02-17T05:48:39.987Z,10.2
2023-02-17T05:49:39.991Z,10.1
2023-02-17T05:50:39.983Z,10.1
2023-02-17T05:51:40.091Z,10.1
2023-02-17T05:52:39.996Z,10.1
2023-02-17T05:53:39.985Z,10.1
2023-02-17T05:54:40.049Z,10.1
2023-02-17T05:55:39.986Z,10.1
2023-02-17T05:56:39.992Z,10.1
2023-02-17T05:57:39.986Z,10.2
2023-02-17T05:58:39.995Z,10.2
2023-02-17T05:59:39.992Z,10.2
2023-02-17T06:00:39.990Z,10.2
2023-02-17T06:01:40.096Z,10.2
2023-02-17T06:02:40.033Z,10.2
2023-02-17T06:03:39.992Z,10.2
2023-02-17T06:04:40.177Z,10.2
2023-02-17T06:05:39.995Z,10.2
2023-02-17T06:06:39.989Z,10.2
2023-02-17T06:07:39.986Z,10.2
2023-02-17T06:08:39.984Z,10.2
2023-02-17T06:09:40.006Z,10.2
2023-02-17T06:10:39.983Z,10.2
2023-02-17T06:11:39.997Z,10.2
2023-02-17T06:12:40.020Z,10.2
2023-02-17T06:13:39.994Z,10.2
2023-02-17T06:14:39.984Z,10.2
2023-02-17T06:15:39.986Z,10.2
2023-02-17T06:16:39.991Z,10.3
2023-02-17T06:17:39.992Z,10.2
2023-02-17T06:18:39.988Z,10.3
2023-02-17T06:19:39.981Z,10.3
2023-02-17T06:20:39.991Z,10.3
2023-02-17T06:21:39.987Z,10.3
2023-02-17T06:22:39.982Z,10.3
2023-02-17T06:23:39.984Z,10.3
2023-02-17T06:24:40.024Z,10.3
2023-02-17T06:25:39.993Z,10.3
2023-02-17T06:26:39.998Z,10.3
2023-02-17T06:27:39.993Z,10.3
2023-02-17T06:28:39.993Z,10.3
2023-02-17T06:29:39.999Z,10.3
2023-02-17T06:30:39.996Z,10.4
2023-02-17T06:31:40.060Z,10.4
2023-02-17T06:32:39.987Z,10.3
2023-02-17T06:33:40.107Z,10.4
2023-02-17T06:34:40.376Z,10.3
2023-02-17T06:35:41.670Z,10.3
2023-02-17T06:36:40.110Z,10.4
2023-02-17T06:37:40.238Z,10.4
2023-02-17T06:38:40.111Z,10.4
2023-02-17T06:39:39.986Z,10.4
2023-02-17T06:40:40.168Z,10.4
2023-02-17T06:41:39.981Z,10.4
2023-02-17T06:42:40.130Z,10.4
2023-02-17T06:43:39.990Z,10.4
2023-02-17T06:44:40.201Z,10.5
2023-02-17T06:45:40.009Z,10.4
2023-02-17T06:46:40.706Z,10.5
2023-02-17T06:47:39.991Z,10.5
2023-02-17T06:48:40.261Z,10.5
2023-02-17T06:49:40.810Z,10.5
2023-02-17T06:50:39.990Z,10.5
2023-02-17T06:51:39.986Z,10.5
2023-02-17T06:52:39.990Z,10.5
2023-02-17T06:53:39.986Z,10.5
2023-02-17T06:54:39.981Z,10.5
2023-02-17T06:55:39.995Z,10.5
2023-02-17T06:56:39.984Z,10.5
2023-02-17T06:57:39.982Z,10.5
2023-02-17T06:58:39.983Z,10.5
2023-02-17T06:59:40.067Z,10.5
2023-02-17T07:00:39.996Z,10.5
2023-02-17T07:01:40.082Z,10.5
2023-02-17T07:02:40.080Z,10.5
2023-02-17T07:03:39.985Z,10.5
2023-02-17T07:04:39.989Z,10.5
2023-02-17T07:05:39.997Z,10.5
2023-02-17T07:06:39.986Z,10.5
2023-02-17T07:07:39.987Z,10.5
2023-02-17T07:08:39.994Z,10.5
2023-02-17T07:09:39.999Z,10.5
2023-02-17T07:10:39.989Z,10.5
2023-02-17T07:11:40.096Z,10.5
2023-02-17T07:12:39.986Z,10.5
2023-02-17T07:13:39.987Z,10.5
2023-02-17T07:14:39.986Z,10.5
2023-02-17T07:15:39.985Z,10.5
2023-02-17T07:16:39.992Z,10.5
2023-02-17T07:17:39.982Z,10.5
2023-02-17T07:18:39.984Z,10.5
2023-02-17T07:19:39.983Z,10.5
2023-02-17T07:20:39.991Z,10.5
2023-02-17T07:21:39.981Z,10.5
2023-02-17T07:22:40.000Z,10.5
2023-02-17T07:23:39.986Z,10.6
2023-02-17T07:24:39.991Z,10.6
2023-02-17T07:25:39.990Z,10.6
2023-02-17T07:26:40.079Z,10.6
2023-02-17T07:27:39.988Z,10.6
2023-02-17T07:28:39.997Z,10.6
2023-02-17T07:29:39.982Z,10.5
2023-02-17T07:30:39.985Z,10.5
2023-02-17T07:31:40.008Z,10.5
2023-02-17T07:32:40.000Z,10.6
2023-02-17T07:33:39.983Z,10.6
2023-02-17T07:34:39.994Z,10.6
2023-02-17T07:35:39.988Z,10.6
2023-02-17T07:36:39.986Z,10.6
2023-02-17T07:37:39.985Z,10.6
2023-02-17T07:38:39.992Z,10.6
2023-02-17T07:39:39.991Z,10.6
2023-02-17T07:40:40.151Z,10.6
2023-02-17T07:41:39.987Z,10.6
2023-02-17T07:42:39.999Z,10.6
2023-02-17T07:43:39.983Z,10.6
2023-02-17T07:44:39.985Z,10.6
2023-02-17T07:45:40.028Z,10.6
2023-02-17T07:46:40.017Z,10.6
2023-02-17T07:47:39.986Z,10.6
2023-02-17T07:48:39.990Z,10.6
2023-02-17T07:49:39.978Z,10.6
2023-02-17T07:50:39.985Z,10.6
2023-02-17T07:51:39.984Z,10.6
2023-02-17T07:52:39.993Z,10.6
2023-02-17T07:53:39.998Z,10.6
2023-02-17T07:54:39.979Z,10.6
2023-02-17T07:55:39.982Z,10.6
2023-02-17T07:56:39.985Z,10.6
2023-02-17T07:57:39.997Z,10.6
2023-02-17T07:58:39.978Z,10.6
2023-02-17T07:59:40.137Z,10.6
2023-02-17T08:00:40.498Z,10.6
2023-02-17T08:01:40.012Z,10.6
2023-02-17T08:02:39.994Z,10.6
2023-02-17T08:03:39.991Z,10.6
2023-02-17T08:04:39.978Z,10.6
2023-02-17T08:05:40.005Z,10.6
2023-02-17T08:06:40.010Z,10.6
2023-02-17T08:07:40.000Z,10.6
2023-02-17T08:08:40.074Z,10.6
2023-02-17T08:09:39.981Z,10.7
2023-02-17T08:10:39.980Z,10.7
2023-02-17T08:11:39.981Z,10.7
2023-02-17T08:12:40.001Z,10.7
2023-02-17T08:13:40.004Z,10.7
2023-02-17T08:14:40.109Z,10.7
2023-02-17T08:15:39.987Z,10.7
2023-02-17T08:16:40.164Z,10.7
2023-02-17T08:17:40.140Z,10.7
2023-02-17T08:18:39.991Z,10.7
2023-02-17T08:19:47.784Z,10.8
2023-02-17T08:20:39.991Z,10.8
2023-02-17T08:21:40.019Z,10.8
2023-02-17T08:22:40.119Z,10.8
2023-02-17T08:23:39.989Z,10.8
2023-02-17T08:24:39.989Z,10.8
2023-02-17T08:25:40.010Z,10.8
2023-02-17T08:26:39.999Z,10.8
2023-02-17T08:27:40.014Z,10.8
2023-02-17T08:28:39.994Z,10.8
2023-02-17T08:29:39.998Z,10.8
2023-02-17T08:30:40.074Z,10.8
2023-02-17T08:31:40.057Z,10.8
2023-02-17T08:32:39.997Z,10.9
2023-02-17T08:33:39.993Z,10.9
2023-02-17T08:34:39.985Z,10.9
2023-02-17T08:35:39.984Z,10.9
2023-02-17T08:36:40.091Z,10.9
2023-02-17T08:37:40.003Z,10.9
2023-02-17T08:38:40.016Z,10.9
2023-02-17T08:39:39.992Z,10.9
2023-02-17T08:40:40.077Z,10.9
2023-02-17T08:41:39.986Z,10.9
2023-02-17T08:42:40.054Z,10.9
2023-02-17T08:43:39.984Z,10.9
2023-02-17T08:44:40.028Z,10.9
2023-02-17T08:45:40.028Z,10.9
2023-02-17T08:46:40.033Z,10.9
2023-02-17T08:47:40.010Z,10.9
2023-02-17T08:48:40.015Z,11
2023-02-17T08:49:40.027Z,11
2023-02-17T08:50:39.999Z,11
2023-02-17T08:51:40.100Z,11
2023-02-17T08:52:40.001Z,11
2023-02-17T08:53:39.982Z,11
2023-02-17T08:54:40.002Z,11
2023-02-17T08:55:48.781Z,11
2023-02-17T08:56:40.014Z,11
2023-02-17T08:57:40.061Z,11
2023-02-17T08:58:39.987Z,11
2023-02-17T08:59:40.027Z,11.1
2023-02-17T09:00:40.048Z,11.1
2023-02-17T09:01:40.345Z,11.1
2023-02-17T09:02:39.994Z,11.1
2023-02-17T09:03:39.984Z,11.1
2023-02-17T09:04:40.062Z,11.1
2023-02-17T09:05:40.085Z,11.1
2023-02-17T09:06:39.990Z,11.1
2023-02-17T09:07:39.984Z,11.1
2023-02-17T09:08:39.999Z,11.2
2023-02-17T09:09:39.999Z,11.2
2023-02-17T09:10:39.986Z,11.1
2023-02-17T09:11:40.224Z,11.2
2023-02-17T09:12:40.265Z,11.2
2023-02-17T09:13:40.121Z,11.2
2023-02-17T09:14:40.294Z,11.2
2023-02-17T09:15:40.318Z,11.2
2023-02-17T09:16:41.336Z,11.2
2023-02-17T09:17:39.987Z,11.3
2023-02-17T09:18:39.999Z,11.3
2023-02-17T09:19:40.219Z,11.3
2023-02-17T09:20:40.375Z,11.3
2023-02-17T09:21:40.267Z,11.3
2023-02-17T09:22:40.201Z,11.3
2023-02-17T09:23:40.009Z,11.3
2023-02-17T09:24:40.005Z,11.4
2023-02-17T09:25:39.983Z,11.4
2023-02-17T09:26:40.024Z,11.4
2023-02-17T09:27:40.049Z,11.4
2023-02-17T09:28:40.039Z,11.4
2023-02-17T09:29:40.025Z,11.4
2023-02-17T09:30:40.047Z,11.4
2023-02-17T09:31:40.222Z,11.5
2023-02-17T09:32:40.008Z,11.4
2023-02-17T09:33:40.039Z,11.5
2023-02-17T09:34:40.073Z,11.5
2023-02-17T09:35:40.039Z,11.5
2023-02-17T09:36:39.988Z,11.5
2023-02-17T09:37:39.999Z,11.5
2023-02-17T09:38:39.992Z,11.5
2023-02-17T09:39:40.000Z,11.5
2023-02-17T09:40:40.025Z,11.6
2023-02-17T09:41:39.991Z,11.5
2023-02-17T09:42:39.990Z,11.6
2023-02-17T09:43:39.996Z,11.6
2023-02-17T09:44:39.993Z,11.6
2023-02-17T09:45:39.990Z,11.6
2023-02-17T09:46:44.826Z,11.6
2023-02-17T09:47:40.032Z,11.6
2023-02-17T09:48:39.996Z,11.6
2023-02-17T09:49:40.056Z,11.7
2023-02-17T09:50:39.985Z,11.7
2023-02-17T09:51:40.000Z,11.7
2023-02-17T09:52:39.999Z,11.7
2023-02-17T09:53:40.054Z,11.7
2023-02-17T09:54:39.987Z,11.7
2023-02-17T09:55:40.001Z,11.7
2023-02-17T09:56:40.000Z,11.7
2023-02-17T09:57:40.010Z,11.7
2023-02-17T09:58:39.989Z,11.8
2023-02-17T09:59:40.019Z,11.8
2023-02-17T10:00:39.986Z,11.8
2023-02-17T10:01:39.989Z,11.9
2023-02-17T10:02:40.010Z,11.9
2023-02-17T10:03:40.073Z,11.9
2023-02-17T10:04:40.065Z,11.9
2023-02-17T10:05:40.057Z,12
2023-02-17T10:06:40.263Z,12
2023-02-17T10:07:39.983Z,12
2023-02-17T10:08:40.064Z,12
2023-02-17T10:09:40.019Z,12.1
2023-02-17T10:10:39.984Z,12.1
2023-02-17T10:11:39.988Z,12.1
2023-02-17T10:12:39.981Z,12.1
2023-02-17T10:13:40.055Z,12.2
2023-02-17T10:14:40.082Z,12.2
2023-02-17T10:15:40.077Z,12.2
2023-02-17T10:16:40.146Z,12.2
2023-02-17T10:17:40.078Z,12.3
2023-02-17T10:18:40.011Z,12.3
2023-02-17T10:19:40.044Z,12.3
2023-02-17T10:20:40.080Z,12.4
2023-02-17T10:21:40.003Z,12.4
2023-02-17T10:22:40.051Z,12.5
2023-02-17T10:23:40.125Z,12.5
2023-02-17T10:24:40.105Z,12.5
2023-02-17T10:25:39.995Z,12.6
2023-02-17T10:26:40.029Z,12.6
2023-02-17T10:27:39.985Z,12.6
2023-02-17T10:28:40.009Z,12.6
2023-02-17T10:29:39.992Z,12.7
2023-02-17T10:30:40.078Z,12.7
2023-02-17T10:31:40.082Z,12.7
2023-02-17T10:32:40.165Z,12.7
2023-02-17T10:33:39.979Z,12.7
2023-02-17T10:34:39.985Z,12.8
2023-02-17T10:35:40.046Z,12.8
2023-02-17T10:36:39.988Z,12.8
2023-02-17T10:37:40.002Z,12.8
2023-02-17T10:38:39.979Z,12.9
2023-02-17T10:39:39.986Z,12.9
2023-02-17T10:40:39.987Z,12.9
2023-02-17T10:41:40.005Z,12.9
2023-02-17T10:42:39.985Z,13
2023-02-17T10:43:39.984Z,13
2023-02-17T10:44:40.034Z,13
2023-02-17T10:45:39.990Z,13
2023-02-17T10:46:40.023Z,13
2023-02-17T10:47:40.042Z,13.1
2023-02-17T10:48:39.987Z,13.1
2023-02-17T10:49:40.010Z,13.1
2023-02-17T10:50:39.985Z,13.1
2023-02-17T10:51:39.985Z,13.1
2023-02-17T10:52:40.003Z,13.1
2023-02-17T10:53:40.008Z,13.1
2023-02-17T10:54:39.997Z,13.1
2023-02-17T10:55:39.987Z,13.2
2023-02-17T10:56:39.996Z,13.2
2023-02-17T10:57:39.986Z,13.2
2023-02-17T10:58:39.988Z,13.3
2023-02-17T10:59:40.006Z,13.3
2023-02-17T11:00:40.017Z,13.3
2023-02-17T11:01:39.985Z,13.3
2023-02-17T11:02:39.986Z,13.3
2023-02-17T11:03:40.016Z,13.3
2023-02-17T11:04:40.021Z,13.3
2023-02-17T11:05:39.980Z,13.3
2023-02-17T11:06:40.018Z,13.4
2023-02-17T11:07:40.022Z,13.3
2023-02-17T11:08:40.017Z,13.4
2023-02-17T11:09:40.010Z,13.4
2023-02-17T11:10:39.994Z,13.4
2023-02-17T11:11:40.004Z,13.4
2023-02-17T11:12:39.989Z,13.4
2023-02-17T11:13:39.998Z,13.4
2023-02-17T11:14:40.009Z,13.4
2023-02-17T11:15:39.988Z,13.4
2023-02-17T11:16:40.098Z,13.4
2023-02-17T11:17:39.987Z,13.4
2023-02-17T11:18:39.986Z,13.4
2023-02-17T11:19:39.988Z,13.4
2023-02-17T11:20:39.992Z,13.5
2023-02-17T11:21:39.987Z,13.5
2023-02-17T11:22:39.995Z,13.5
2023-02-17T11:23:39.987Z,13.5
2023-02-17T11:24:39.995Z,13.5
2023-02-17T11:25:39.985Z,13.5
2023-02-17T11:26:39.982Z,13.5
2023-02-17T11:27:39.984Z,13.5
2023-02-17T11:28:39.991Z,13.5
2023-02-17T11:29:39.990Z,13.5
2023-02-17T11:30:39.990Z,13.5
2023-02-17T11:31:40.112Z,13.6
2023-02-17T11:32:39.982Z,13.6
2023-02-17T11:33:40.005Z,13.7
2023-02-17T11:34:40.056Z,13.7
2023-02-17T11:35:40.340Z,13.7
2023-02-17T11:36:40.544Z,13.8
2023-02-17T11:37:40.002Z,13.8
2023-02-17T11:38:39.989Z,13.8
2023-02-17T11:39:39.996Z,13.9
2023-02-17T11:40:39.994Z,13.9
2023-02-17T11:41:39.994Z,13.9
2023-02-17T11:42:39.990Z,14
2023-02-17T11:43:39.988Z,14
2023-02-17T11:44:39.988Z,14
2023-02-17T11:45:40.054Z,14.1
2023-02-17T11:46:39.988Z,14.1
2023-02-17T11:47:39.990Z,14.1
2023-02-17T11:48:39.998Z,14.2
2023-02-17T11:49:40.268Z,14.2
2023-02-17T11:50:41.865Z,14.2
2023-02-17T11:51:39.996Z,14.2
2023-02-17T11:52:40.202Z,14.2
2023-02-17T11:53:40.036Z,14.2
2023-02-17T11:54:40.259Z,14.2
2023-02-17T11:55:39.993Z,14.2
2023-02-17T11:56:39.988Z,14.2
2023-02-17T11:57:40.008Z,14.3
2023-02-17T11:58:39.997Z,14.3
2023-02-17T11:59:39.993Z,14.3
2023-02-17T12:00:39.998Z,14.2
2023-02-17T12:01:40.009Z,14.2
2023-02-17T12:02:39.994Z,14.2
2023-02-17T12:03:39.997Z,14.2
2023-02-17T12:04:40.003Z,14.2
2023-02-17T12:05:39.991Z,14.1
2023-02-17T12:06:39.987Z,14.1
2023-02-17T12:07:39.980Z,14.1
2023-02-17T12:08:39.986Z,14.1
2023-02-17T12:09:39.995Z,14.1
2023-02-17T12:10:39.990Z,14.1
2023-02-17T12:11:39.984Z,14.2
2023-02-17T12:12:40.005Z,14.2
2023-02-17T12:13:40.062Z,14.2
2023-02-17T12:14:40.089Z,14.3
2023-02-17T12:15:40.008Z,14.3
2023-02-17T12:16:40.030Z,14.3
2023-02-17T12:17:39.989Z,14.4
2023-02-17T12:18:39.988Z,14.5
2023-02-17T12:19:39.996Z,14.5
2023-02-17T12:20:39.989Z,14.6
2023-02-17T12:21:39.993Z,14.6
2023-02-17T12:22:39.987Z,14.7
2023-02-17T12:23:39.988Z,14.7
2023-02-17T12:24:39.983Z,14.8
2023-02-17T12:25:39.985Z,14.8
2023-02-17T12:26:39.997Z,14.8
2023-02-17T12:27:40.014Z,14.9
2023-02-17T12:28:39.989Z,14.9
2023-02-17T12:29:40.078Z,14.9
2023-02-17T12:30:40.063Z,15
2023-02-17T12:31:40.038Z,15
2023-02-17T12:32:39.984Z,15
2023-02-17T12:33:39.981Z,15
2023-02-17T12:34:39.984Z,15
2023-02-17T12:35:39.985Z,15
2023-02-17T12:36:39.982Z,15
2023-02-17T12:37:39.981Z,15
2023-02-17T12:38:39.989Z,15
2023-02-17T12:39:39.983Z,14.9
2023-02-17T12:40:39.999Z,14.9
2023-02-17T12:41:40.005Z,14.9
2023-02-17T12:42:40.003Z,14.8
2023-02-17T12:43:39.995Z,14.8
2023-02-17T12:44:40.105Z,14.7
2023-02-17T12:45:40.012Z,14.7
2023-02-17T12:46:40.264Z,14.7
2023-02-17T12:47:40.161Z,14.6
2023-02-17T12:48:40.012Z,14.5
2023-02-17T12:49:39.987Z,14.5
2023-02-17T12:50:39.984Z,14.5
2023-02-17T12:51:39.989Z,14.4
2023-02-17T12:52:40.153Z,14.4
2023-02-17T12:53:40.042Z,14.4
2023-02-17T12:54:40.261Z,14.3
2023-02-17T12:55:39.993Z,14.3
2023-02-17T12:56:40.128Z,14.3
2023-02-17T12:57:40.329Z,14.3
2023-02-17T12:58:39.986Z,14.3
2023-02-17T12:59:39.986Z,14.2
2023-02-17T13:00:40.005Z,14.3
2023-02-17T13:01:40.033Z,14.2
2023-02-17T13:02:40.086Z,14.2
2023-02-17T13:03:39.982Z,14.2
2023-02-17T13:04:39.985Z,14.2
2023-02-17T13:05:40.000Z,14.3
2023-02-17T13:06:40.009Z,14.3
2023-02-17T13:07:39.991Z,14.3
2023-02-17T13:08:39.990Z,14.3
2023-02-17T13:09:39.992Z,14.3
2023-02-17T13:10:39.995Z,14.3
2023-02-17T13:11:40.082Z,14.3
2023-02-17T13:12:40.052Z,14.3
2023-02-17T13:13:39.995Z,14.3
2023-02-17T13:14:40.020Z,14.3
2023-02-17T13:15:40.019Z,14.2
2023-02-17T13:16:39.990Z,14.2
2023-02-17T13:17:40.009Z,14.2
2023-02-17T13:18:39.989Z,14.2
2023-02-17T13:19:40.001Z,14.1
2023-02-17T13:20:39.992Z,14.1
2023-02-17T13:21:39.994Z,14.1
2023-02-17T13:22:39.986Z,14.1
2023-02-17T13:23:39.990Z,14.1
2023-02-17T13:24:40.050Z,14
2023-02-17T13:25:40.136Z,14
2023-02-17T13:26:39.990Z,14
2023-02-17T13:27:40.000Z,14
2023-02-17T13:28:39.992Z,14
2023-02-17T13:29:40.007Z,13.9
2023-02-17T13:30:40.147Z,13.9
2023-02-17T13:31:40.070Z,13.8